sensor_id;sensor_type;location;lat;lon;timestamp;temperature;humidity
25568;DHT22;13455;51.480;7.594;2023-04-29T04:23:42;10.80;99.90
25568;DHT22;13455;51.480;7.594;2023-04-29T04:26:08;10.70;99.90
25568;DHT22;13455;51.480;7.594;2023-04-29T04:28:34;10.70;99.90
25568;DHT22;13455;51.480;7.594;2023-04-29T04:30:59;10.60;99.90
25568;DHT22;13455;51.480;7.594;2023-04-29T04:33:25;10.50;99.90
25568;DHT22;13455;51.480;7.594;2023-04-29T04:35:51;10.60;99.90
25568;DHT22;13455;51.480;7.594;2023-04-29T04:38:17;10.60;99.90
25568;DHT22;13455;51.480;7.594;2023-04-29T04:40:43;10.60;99.90
25568;DHT22;13455;51.480;7.594;2023-04-29T04:43:08;10.60;99.90
25568;DHT22;13455;51.480;7.594;2023-04-29T04:45:34;10.60;99.90
25568;DHT22;13455;51.480;7.594;2023-04-29T04:48:01;10.60;99.90
25568;DHT22;13455;51.480;7.594;2023-04-29T04:50:27;10.60;99.90
25568;DHT22;13455;51.480;7.594;2023-04-29T04:52:56;10.60;99.90
25568;DHT22;13455;51.480;7.594;2023-04-29T04:55:22;10.60;99.90
25568;DHT22;13455;51.480;7.594;2023-04-29T04:57:48;10.60;99.90
25568;DHT22;13455;51.480;7.594;2023-04-29T05:00:14;10.60;99.90
25568;DHT22;13455;51.480;7.594;2023-04-29T05:02:39;10.50;99.90
25568;DHT22;13455;51.480;7.594;2023-04-29T05:05:05;10.90;99.90
25568;DHT22;13455;51.480;7.594;2023-04-29T05:07:32;10.50;99.90
25568;DHT22;13455;51.480;7.594;2023-04-29T05:10:00;10.60;99.90
25568;DHT22;13455;51.480;7.594;2023-04-29T05:12:27;10.70;99.90
25568;DHT22;13455;51.480;7.594;2023-04-29T05:17:21;10.70;99.90
25568;DHT22;13455;51.480;7.594;2023-04-29T05:22:13;10.30;99.90
25568;DHT22;13455;51.480;7.594;2023-04-29T05:24:38;10.50;99.90
25568;DHT22;13455;51.480;7.594;2023-04-29T05:27:04;10.50;99.90
25568;DHT22;13455;51.480;7.594;2023-04-29T05:29:30;10.50;99.90
25568;DHT22;13455;51.480;7.594;2023-04-29T05:31:55;10.50;99.90
25568;DHT22;13455;51.480;7.594;2023-04-29T05:34:21;10.50;99.90
25568;DHT22;13455;51.480;7.594;2023-04-29T05:36:46;10.50;99.90
25568;DHT22;13455;51.480;7.594;2023-04-29T05:39:12;10.50;99.90
25568;DHT22;13455;51.480;7.594;2023-04-29T05:41:37;10.70;99.90
25568;DHT22;13455;51.480;7.594;2023-04-29T05:44:04;10.50;99.90
25568;DHT22;13455;51.480;7.594;2023-04-29T05:46:29;10.50;99.90
25568;DHT22;13455;51.480;7.594;2023-04-29T05:48:55;10.50;99.90
25568;DHT22;13455;51.480;7.594;2023-04-29T05:51:20;10.50;99.90
25568;DHT22;13455;51.480;7.594;2023-04-29T05:53:46;10.50;99.90
25568;DHT22;13455;51.480;7.594;2023-04-29T05:56:11;10.50;99.90
25568;DHT22;13455;51.480;7.594;2023-04-29T05:58:37;10.60;99.90
25568;DHT22;13455;51.480;7.594;2023-04-29T06:01:03;10.60;99.90
25568;DHT22;13455;51.480;7.594;2023-04-29T06:03:28;10.60;99.90
25568;DHT22;13455;51.480;7.594;2023-04-29T06:05:55;10.60;99.90
25568;DHT22;13455;51.480;7.594;2023-04-29T06:08:20;10.60;99.90
25568;DHT22;13455;51.480;7.594;2023-04-29T06:10:46;10.70;99.90
25568;DHT22;13455;51.480;7.594;2023-04-29T06:13:12;10.70;99.90
25568;DHT22;13455;51.480;7.594;2023-04-29T06:15:38;10.70;99.90
25568;DHT22;13455;51.480;7.594;2023-04-29T06:18:03;10.80;99.90
25568;DHT22;13455;51.480;7.594;2023-04-29T06:20:29;10.70;99.90
25568;DHT22;13455;51.480;7.594;2023-04-29T06:22:55;10.80;99.90
25568;DHT22;13455;51.480;7.594;2023-04-29T06:25:20;10.80;99.90
25568;DHT22;13455;51.480;7.594;2023-04-29T06:27:46;10.80;99.90
25568;DHT22;13455;51.480;7.594;2023-04-29T06:30:13;10.80;99.90
25568;DHT22;13455;51.480;7.594;2023-04-29T06:32:38;10.80;99.90
25568;DHT22;13455;51.480;7.594;2023-04-29T06:35:04;10.80;99.90
25568;DHT22;13455;51.480;7.594;2023-04-29T06:37:30;10.80;99.90
25568;DHT22;13455;51.480;7.594;2023-04-29T06:39:56;10.80;99.90
25568;DHT22;13455;51.480;7.594;2023-04-29T06:42:21;10.80;99.90
25568;DHT22;13455;51.480;7.594;2023-04-29T06:44:47;10.90;99.90
25568;DHT22;13455;51.480;7.594;2023-04-29T06:47:13;10.90;99.90
25568;DHT22;13455;51.480;7.594;2023-04-29T06:49:39;10.80;99.90
25568;DHT22;13455;51.480;7.594;2023-04-29T06:52:05;10.80;99.90
25568;DHT22;13455;51.480;7.594;2023-04-29T06:54:31;10.70;99.90
25568;DHT22;13455;51.480;7.594;2023-04-29T06:56:57;10.80;99.90
25568;DHT22;13455;51.480;7.594;2023-04-29T06:59:22;10.80;99.90
25568;DHT22;13455;51.480;7.594;2023-04-29T07:01:48;10.90;99.90
25568;DHT22;13455;51.480;7.594;2023-04-29T07:04:13;10.90;99.90
25568;DHT22;13455;51.480;7.594;2023-04-29T07:06:39;10.80;99.90
25568;DHT22;13455;51.480;7.594;2023-04-29T07:09:05;10.80;99.90
25568;DHT22;13455;51.480;7.594;2023-04-29T07:11:30;11.00;99.90
25568;DHT22;13455;51.480;7.594;2023-04-29T07:13:56;10.80;99.90
25568;DHT22;13455;51.480;7.594;2023-04-29T07:16:22;10.70;99.90
25568;DHT22;13455;51.480;7.594;2023-04-29T07:18:50;10.60;99.90
25568;DHT22;13455;51.480;7.594;2023-04-29T07:21:16;10.60;99.90
25568;DHT22;13455;51.480;7.594;2023-04-29T07:23:42;10.50;99.90
25568;DHT22;13455;51.480;7.594;2023-04-29T07:26:15;10.40;99.90
25568;DHT22;13455;51.480;7.594;2023-04-29T07:28:42;10.60;99.90
25568;DHT22;13455;51.480;7.594;2023-04-29T07:31:08;10.50;99.90
25568;DHT22;13455;51.480;7.594;2023-04-29T07:33:34;10.50;99.90
25568;DHT22;13455;51.480;7.594;2023-04-29T07:36:00;10.50;99.90
25568;DHT22;13455;51.480;7.594;2023-04-29T07:38:26;10.40;99.90
25568;DHT22;13455;51.480;7.594;2023-04-29T07:40:52;10.40;99.90
25568;DHT22;13455;51.480;7.594;2023-04-29T07:43:18;10.50;99.90
25568;DHT22;13455;51.480;7.594;2023-04-29T07:45:43;10.40;99.90
25568;DHT22;13455;51.480;7.594;2023-04-29T07:48:09;10.40;99.90
25568;DHT22;13455;51.480;7.594;2023-04-29T07:50:35;10.50;99.90
25568;DHT22;13455;51.480;7.594;2023-04-29T07:53:01;10.40;99.90
25568;DHT22;13455;51.480;7.594;2023-04-29T07:55:28;10.40;99.90
25568;DHT22;13455;51.480;7.594;2023-04-29T07:57:59;10.60;99.90
25568;DHT22;13455;51.480;7.594;2023-04-29T08:00:25;10.50;99.90
25568;DHT22;13455;51.480;7.594;2023-04-29T08:02:53;10.50;99.90
25568;DHT22;13455;51.480;7.594;2023-04-29T08:05:20;10.60;99.90
25568;DHT22;13455;51.480;7.594;2023-04-29T08:07:50;10.50;99.90
25568;DHT22;13455;51.480;7.594;2023-04-29T08:10:16;10.60;99.90
25568;DHT22;13455;51.480;7.594;2023-04-29T08:12:45;10.60;99.90
25568;DHT22;13455;51.480;7.594;2023-04-29T08:15:11;10.60;99.90
25568;DHT22;13455;51.480;7.594;2023-04-29T08:17:37;10.60;99.90
25568;DHT22;13455;51.480;7.594;2023-04-29T08:20:02;10.80;99.90
25568;DHT22;13455;51.480;7.594;2023-04-29T08:22:28;10.60;99.90
25568;DHT22;13455;51.480;7.594;2023-04-29T08:24:54;10.60;99.90
25568;DHT22;13455;51.480;7.594;2023-04-29T08:27:20;10.50;99.90
25568;DHT22;13455;51.480;7.594;2023-04-29T08:29:46;10.60;99.90
25568;DHT22;13455;51.480;7.594;2023-04-29T08:32:12;10.50;99.90
25568;DHT22;13455;51.480;7.594;2023-04-29T08:34:37;10.40;99.90
25568;DHT22;13455;51.480;7.594;2023-04-29T08:37:03;10.40;99.90
25568;DHT22;13455;51.480;7.594;2023-04-29T08:39:31;10.40;99.90
25568;DHT22;13455;51.480;7.594;2023-04-29T08:41:57;10.40;99.90
25568;DHT22;13455;51.480;7.594;2023-04-29T08:44:25;10.50;99.90
25568;DHT22;13455;51.480;7.594;2023-04-29T08:46:52;10.50;99.90
25568;DHT22;13455;51.480;7.594;2023-04-29T08:49:18;10.50;99.90
25568;DHT22;13455;51.480;7.594;2023-04-29T08:51:44;10.50;99.90
25568;DHT22;13455;51.480;7.594;2023-04-29T08:54:12;10.50;99.90
25568;DHT22;13455;51.480;7.594;2023-04-29T08:56:38;10.40;99.90
25568;DHT22;13455;51.480;7.594;2023-04-29T08:59:05;10.50;99.90
25568;DHT22;13455;51.480;7.594;2023-04-29T09:01:35;10.50;99.90
25568;DHT22;13455;51.480;7.594;2023-04-29T09:06:55;10.60;99.90
25568;DHT22;13455;51.480;7.594;2023-04-29T09:09:23;10.50;99.90
25568;DHT22;13455;51.480;7.594;2023-04-29T09:11:49;10.60;99.90
25568;DHT22;13455;51.480;7.594;2023-04-29T09:14:15;10.60;99.90
25568;DHT22;13455;51.480;7.594;2023-04-29T09:16:40;10.70;99.90
25568;DHT22;13455;51.480;7.594;2023-04-29T09:19:06;10.60;99.90
25568;DHT22;13455;51.480;7.594;2023-04-29T09:21:32;10.50;99.90
25568;DHT22;13455;51.480;7.594;2023-04-29T09:23:59;10.60;99.90
25568;DHT22;13455;51.480;7.594;2023-04-29T09:26:26;10.60;99.90
25568;DHT22;13455;51.480;7.594;2023-04-29T09:29:11;10.70;99.90
25568;DHT22;13455;51.480;7.594;2023-04-29T09:31:42;10.70;99.90
25568;DHT22;13455;51.480;7.594;2023-04-29T09:34:08;10.80;99.90
25568;DHT22;13455;51.480;7.594;2023-04-29T09:39:11;10.80;99.90
25568;DHT22;13455;51.480;7.594;2023-04-29T09:44:31;10.80;99.90
25568;DHT22;13455;51.480;7.594;2023-04-29T09:47:05;10.80;99.90
25568;DHT22;13455;51.480;7.594;2023-04-29T09:49:32;10.80;99.90
25568;DHT22;13455;51.480;7.594;2023-04-29T09:52:01;10.90;99.90
25568;DHT22;13455;51.480;7.594;2023-04-29T09:54:29;11.10;99.90
25568;DHT22;13455;51.480;7.594;2023-04-29T09:56:56;11.20;99.90
25568;DHT22;13455;51.480;7.594;2023-04-29T09:59:23;11.40;99.90
25568;DHT22;13455;51.480;7.594;2023-04-29T10:01:54;11.60;99.90
25568;DHT22;13455;51.480;7.594;2023-04-29T10:04:21;11.70;99.90
25568;DHT22;13455;51.480;7.594;2023-04-29T10:06:49;11.80;99.90
25568;DHT22;13455;51.480;7.594;2023-04-29T10:09:16;11.90;99.90
25568;DHT22;13455;51.480;7.594;2023-04-29T10:11:46;11.90;99.90
25568;DHT22;13455;51.480;7.594;2023-04-29T10:14:17;11.90;99.90
25568;DHT22;13455;51.480;7.594;2023-04-29T10:17:02;12.00;99.90
25568;DHT22;13455;51.480;7.594;2023-04-29T10:19:38;12.00;99.90
25568;DHT22;13455;51.480;7.594;2023-04-29T10:22:09;12.10;99.90
25568;DHT22;13455;51.480;7.594;2023-04-29T10:24:38;12.10;99.90
25568;DHT22;13455;51.480;7.594;2023-04-29T10:27:06;12.00;99.90
25568;DHT22;13455;51.480;7.594;2023-04-29T10:29:34;12.20;99.90
25568;DHT22;13455;51.480;7.594;2023-04-29T10:32:02;12.30;99.90
25568;DHT22;13455;51.480;7.594;2023-04-29T10:34:29;12.40;99.90
25568;DHT22;13455;51.480;7.594;2023-04-29T10:36:56;12.60;99.90
25568;DHT22;13455;51.480;7.594;2023-04-29T10:39:44;12.80;99.90
25568;DHT22;13455;51.480;7.594;2023-04-29T10:45:28;13.10;99.90
25568;DHT22;13455;51.480;7.594;2023-04-29T10:50:32;13.30;99.90
25568;DHT22;13455;51.480;7.594;2023-04-29T10:53:01;13.40;99.90
25568;DHT22;13455;51.480;7.594;2023-04-29T10:55:27;13.50;99.90
25568;DHT22;13455;51.480;7.594;2023-04-29T10:57:54;13.50;99.90
25568;DHT22;13455;51.480;7.594;2023-04-29T11:02:59;13.70;99.90
25568;DHT22;13455;51.480;7.594;2023-04-29T11:05:33;13.90;99.90
25568;DHT22;13455;51.480;7.594;2023-04-29T11:10:40;14.00;99.90
25568;DHT22;13455;51.480;7.594;2023-04-29T11:13:28;13.90;99.90
25568;DHT22;13455;51.480;7.594;2023-04-29T11:18:30;14.20;99.90
25568;DHT22;13455;51.480;7.594;2023-04-29T11:23:34;14.70;99.90
25568;DHT22;13455;51.480;7.594;2023-04-29T11:26:01;14.70;99.90
25568;DHT22;13455;51.480;7.594;2023-04-29T11:28:27;14.60;99.90
25568;DHT22;13455;51.480;7.594;2023-04-29T11:30:53;14.70;99.90
25568;DHT22;13455;51.480;7.594;2023-04-29T11:33:22;14.90;99.90
25568;DHT22;13455;51.480;7.594;2023-04-29T11:38:14;15.00;99.90
25568;DHT22;13455;51.480;7.594;2023-04-29T11:48:17;15.50;99.90
25568;DHT22;13455;51.480;7.594;2023-04-29T11:50:47;15.50;99.90
25568;DHT22;13455;51.480;7.594;2023-04-29T11:53:14;15.60;99.90
25568;DHT22;13455;51.480;7.594;2023-04-29T11:58:10;16.10;99.90
25568;DHT22;13455;51.480;7.594;2023-04-29T12:03:19;16.30;99.90
25568;DHT22;13455;51.480;7.594;2023-04-29T12:05:55;16.40;99.90
25568;DHT22;13455;51.480;7.594;2023-04-29T12:10:56;16.30;99.90
25568;DHT22;13455;51.480;7.594;2023-04-29T12:13:23;16.20;99.90
25568;DHT22;13455;51.480;7.594;2023-04-29T12:15:50;16.20;99.90
25568;DHT22;13455;51.480;7.594;2023-04-29T12:18:17;16.20;99.90
25568;DHT22;13455;51.480;7.594;2023-04-29T12:20:44;16.10;99.90
25568;DHT22;13455;51.480;7.594;2023-04-29T12:23:16;16.10;99.90
25568;DHT22;13455;51.480;7.594;2023-04-29T12:25:58;16.00;99.90
25568;DHT22;13455;51.480;7.594;2023-04-29T12:28:24;16.00;99.90
25568;DHT22;13455;51.480;7.594;2023-04-29T12:30:52;15.80;99.90
25568;DHT22;13455;51.480;7.594;2023-04-29T12:33:21;15.90;99.90
25568;DHT22;13455;51.480;7.594;2023-04-29T12:35:51;15.70;99.90
25568;DHT22;13455;51.480;7.594;2023-04-29T12:38:25;15.60;99.90
25568;DHT22;13455;51.480;7.594;2023-04-29T12:40:54;15.50;99.90
25568;DHT22;13455;51.480;7.594;2023-04-29T12:43:31;15.50;99.90
25568;DHT22;13455;51.480;7.594;2023-04-29T12:46:06;15.50;99.90
25568;DHT22;13455;51.480;7.594;2023-04-29T12:48:33;15.50;99.90
25568;DHT22;13455;51.480;7.594;2023-04-29T12:51:00;15.50;99.90
25568;DHT22;13455;51.480;7.594;2023-04-29T12:53:27;15.50;99.90
25568;DHT22;13455;51.480;7.594;2023-04-29T12:55:53;15.40;99.90
25568;DHT22;13455;51.480;7.594;2023-04-29T12:58:19;15.40;99.90
25568;DHT22;13455;51.480;7.594;2023-04-29T13:00:45;15.50;99.90
25568;DHT22;13455;51.480;7.594;2023-04-29T13:03:11;15.50;99.90
25568;DHT22;13455;51.480;7.594;2023-04-29T13:05:36;15.60;99.90
25568;DHT22;13455;51.480;7.594;2023-04-29T13:08:02;15.50;99.90
25568;DHT22;13455;51.480;7.594;2023-04-29T13:10:31;15.60;99.90
25568;DHT22;13455;51.480;7.594;2023-04-29T13:12:58;16.00;99.90
25568;DHT22;13455;51.480;7.594;2023-04-29T13:15:24;15.80;99.90
25568;DHT22;13455;51.480;7.594;2023-04-29T13:17:50;15.80;99.90
25568;DHT22;13455;51.480;7.594;2023-04-29T13:20:16;15.90;99.90
25568;DHT22;13455;51.480;7.594;2023-04-29T13:22:42;15.80;99.90
25568;DHT22;13455;51.480;7.594;2023-04-29T13:25:09;15.90;99.90
25568;DHT22;13455;51.480;7.594;2023-04-29T13:27:36;16.10;99.90
25568;DHT22;13455;51.480;7.594;2023-04-29T13:30:02;16.00;99.90
25568;DHT22;13455;51.480;7.594;2023-04-29T13:32:27;16.10;99.90
25568;DHT22;13455;51.480;7.594;2023-04-29T13:34:53;16.10;99.90
25568;DHT22;13455;51.480;7.594;2023-04-29T13:37:19;16.20;99.90
25568;DHT22;13455;51.480;7.594;2023-04-29T13:39:45;16.20;99.90
25568;DHT22;13455;51.480;7.594;2023-04-29T13:42:11;16.30;99.90
25568;DHT22;13455;51.480;7.594;2023-04-29T13:44:36;16.40;99.90
25568;DHT22;13455;51.480;7.594;2023-04-29T13:47:02;16.40;99.90
25568;DHT22;13455;51.480;7.594;2023-04-29T13:49:30;16.40;99.90
25568;DHT22;13455;51.480;7.594;2023-04-29T13:51:56;16.40;99.90
25568;DHT22;13455;51.480;7.594;2023-04-29T13:54:21;16.60;99.90
25568;DHT22;13455;51.480;7.594;2023-04-29T13:56:48;16.60;99.90
25568;DHT22;13455;51.480;7.594;2023-04-29T13:59:13;16.60;99.90
25568;DHT22;13455;51.480;7.594;2023-04-29T14:01:39;16.50;99.90
25568;DHT22;13455;51.480;7.594;2023-04-29T14:04:05;16.70;99.90
25568;DHT22;13455;51.480;7.594;2023-04-29T14:06:30;16.50;99.90
25568;DHT22;13455;51.480;7.594;2023-04-29T14:08:57;16.70;99.90
25568;DHT22;13455;51.480;7.594;2023-04-29T14:11:23;16.70;99.90
25568;DHT22;13455;51.480;7.594;2023-04-29T14:13:48;16.50;99.90
25568;DHT22;13455;51.480;7.594;2023-04-29T14:16:14;16.90;99.90
25568;DHT22;13455;51.480;7.594;2023-04-29T14:18:41;16.80;99.90
25568;DHT22;13455;51.480;7.594;2023-04-29T14:21:07;16.70;99.90
25568;DHT22;13455;51.480;7.594;2023-04-29T14:23:32;16.70;99.90
25568;DHT22;13455;51.480;7.594;2023-04-29T14:25:58;16.60;99.90
25568;DHT22;13455;51.480;7.594;2023-04-29T14:28:24;16.60;99.90
25568;DHT22;13455;51.480;7.594;2023-04-29T14:30:49;16.60;99.90
25568;DHT22;13455;51.480;7.594;2023-04-29T14:33:15;16.50;99.90
25568;DHT22;13455;51.480;7.594;2023-04-29T14:35:41;16.50;99.90
25568;DHT22;13455;51.480;7.594;2023-04-29T14:38:06;16.60;99.90
25568;DHT22;13455;51.480;7.594;2023-04-29T14:40:32;16.60;99.90
25568;DHT22;13455;51.480;7.594;2023-04-29T14:42:57;16.30;99.90
25568;DHT22;13455;51.480;7.594;2023-04-29T14:45:23;16.40;99.90
25568;DHT22;13455;51.480;7.594;2023-04-29T14:47:49;16.20;99.90
25568;DHT22;13455;51.480;7.594;2023-04-29T14:50:14;16.10;99.90
25568;DHT22;13455;51.480;7.594;2023-04-29T14:52:40;16.00;99.90
25568;DHT22;13455;51.480;7.594;2023-04-29T14:55:06;16.10;99.90
25568;DHT22;13455;51.480;7.594;2023-04-29T14:57:33;15.70;99.90
25568;DHT22;13455;51.480;7.594;2023-04-29T14:59:58;15.90;99.90
25568;DHT22;13455;51.480;7.594;2023-04-29T15:02:24;15.90;99.90
25568;DHT22;13455;51.480;7.594;2023-04-29T15:04:50;15.70;99.90
25568;DHT22;13455;51.480;7.594;2023-04-29T15:07:15;15.60;99.90
25568;DHT22;13455;51.480;7.594;2023-04-29T15:09:41;15.40;99.90
25568;DHT22;13455;51.480;7.594;2023-04-29T15:12:07;15.50;99.90
25568;DHT22;13455;51.480;7.594;2023-04-29T15:14:33;15.50;99.90
25568;DHT22;13455;51.480;7.594;2023-04-29T15:17:00;15.60;99.90
25568;DHT22;13455;51.480;7.594;2023-04-29T15:19:25;16.00;99.90
25568;DHT22;13455;51.480;7.594;2023-04-29T15:21:51;16.30;99.90
25568;DHT22;13455;51.480;7.594;2023-04-29T15:24:17;15.80;99.90
25568;DHT22;13455;51.480;7.594;2023-04-29T15:26:43;16.10;99.90
25568;DHT22;13455;51.480;7.594;2023-04-29T15:29:09;15.80;99.90
25568;DHT22;13455;51.480;7.594;2023-04-29T15:31:36;16.20;99.90
25568;DHT22;13455;51.480;7.594;2023-04-29T15:34:01;16.60;99.90
25568;DHT22;13455;51.480;7.594;2023-04-29T15:36:31;16.70;99.90
25568;DHT22;13455;51.480;7.594;2023-04-29T15:38:59;16.90;99.90
25568;DHT22;13455;51.480;7.594;2023-04-29T15:41:25;17.60;99.90
25568;DHT22;13455;51.480;7.594;2023-04-29T15:43:51;18.50;99.90
25568;DHT22;13455;51.480;7.594;2023-04-29T15:48:44;20.20;99.90
25568;DHT22;13455;51.480;7.594;2023-04-29T15:56:05;19.90;99.90
25568;DHT22;13455;51.480;7.594;2023-04-29T15:58:30;19.70;99.90
25568;DHT22;13455;51.480;7.594;2023-04-29T16:00:56;19.70;99.90
25568;DHT22;13455;51.480;7.594;2023-04-29T16:03:22;19.70;99.90
25568;DHT22;13455;51.480;7.594;2023-04-29T16:05:49;19.60;99.90
25568;DHT22;13455;51.480;7.594;2023-04-29T16:08:15;19.50;99.90
25568;DHT22;13455;51.480;7.594;2023-04-29T16:10:40;19.30;99.90
25568;DHT22;13455;51.480;7.594;2023-04-29T16:13:06;19.10;99.90
25568;DHT22;13455;51.480;7.594;2023-04-29T16:15:31;19.00;99.90
25568;DHT22;13455;51.480;7.594;2023-04-29T16:17:57;18.90;99.90
25568;DHT22;13455;51.480;7.594;2023-04-29T16:20:24;18.70;99.90
25568;DHT22;13455;51.480;7.594;2023-04-29T16:22:50;18.60;99.90
25568;DHT22;13455;51.480;7.594;2023-04-29T16:25:15;18.40;99.90
25568;DHT22;13455;51.480;7.594;2023-04-29T16:27:41;18.40;99.90
25568;DHT22;13455;51.480;7.594;2023-04-29T16:30:07;18.30;99.90
25568;DHT22;13455;51.480;7.594;2023-04-29T16:32:33;18.30;99.90
25568;DHT22;13455;51.480;7.594;2023-04-29T16:34:58;18.10;99.90
25568;DHT22;13455;51.480;7.594;2023-04-29T16:37:25;18.00;99.90
25568;DHT22;13455;51.480;7.594;2023-04-29T16:39:50;17.90;99.90
25568;DHT22;13455;51.480;7.594;2023-04-29T16:42:16;17.80;99.90
25568;DHT22;13455;51.480;7.594;2023-04-29T16:44:42;17.70;99.90
25568;DHT22;13455;51.480;7.594;2023-04-29T16:47:08;17.60;99.90
25568;DHT22;13455;51.480;7.594;2023-04-29T16:49:33;17.50;99.90
25568;DHT22;13455;51.480;7.594;2023-04-29T16:51:59;17.50;99.90
25568;DHT22;13455;51.480;7.594;2023-04-29T16:54:25;17.40;99.90
25568;DHT22;13455;51.480;7.594;2023-04-29T16:56:52;17.30;99.90
25568;DHT22;13455;51.480;7.594;2023-04-29T16:59:17;17.20;99.90
25568;DHT22;13455;51.480;7.594;2023-04-29T17:01:43;17.20;99.90
25568;DHT22;13455;51.480;7.594;2023-04-29T17:04:09;17.10;99.90
25568;DHT22;13455;51.480;7.594;2023-04-29T17:06:35;17.00;99.90
25568;DHT22;13455;51.480;7.594;2023-04-29T17:09:01;17.00;99.90
25568;DHT22;13455;51.480;7.594;2023-04-29T17:11:27;16.90;99.90
25568;DHT22;13455;51.480;7.594;2023-04-29T17:13:53;16.90;99.90
25568;DHT22;13455;51.480;7.594;2023-04-29T17:16:18;16.90;99.90
25568;DHT22;13455;51.480;7.594;2023-04-29T17:18:44;16.80;99.90
25568;DHT22;13455;51.480;7.594;2023-04-29T17:21:10;16.80;99.90
25568;DHT22;13455;51.480;7.594;2023-04-29T17:23:36;16.70;99.90
25568;DHT22;13455;51.480;7.594;2023-04-29T17:26:03;16.70;99.90
25568;DHT22;13455;51.480;7.594;2023-04-29T17:28:29;16.60;99.90
25568;DHT22;13455;51.480;7.594;2023-04-29T17:30:55;16.60;99.90
25568;DHT22;13455;51.480;7.594;2023-04-29T17:33:24;16.50;99.90
25568;DHT22;13455;51.480;7.594;2023-04-29T17:36:02;16.40;99.90
25568;DHT22;13455;51.480;7.594;2023-04-29T17:38:29;16.40;99.90
25568;DHT22;13455;51.480;7.594;2023-04-29T17:40:57;16.40;99.90
25568;DHT22;13455;51.480;7.594;2023-04-29T17:43:23;16.30;99.90
25568;DHT22;13455;51.480;7.594;2023-04-29T17:45:49;16.40;99.90
25568;DHT22;13455;51.480;7.594;2023-04-29T17:48:14;16.20;99.90
25568;DHT22;13455;51.480;7.594;2023-04-29T17:55:37;16.10;99.90
25568;DHT22;13455;51.480;7.594;2023-04-29T17:58:04;16.00;99.90
25568;DHT22;13455;51.480;7.594;2023-04-29T18:00:29;16.00;99.90
25568;DHT22;13455;51.480;7.594;2023-04-29T18:02:55;16.00;99.90
25568;DHT22;13455;51.480;7.594;2023-04-29T18:05:21;15.90;99.90
25568;DHT22;13455;51.480;7.594;2023-04-29T18:07:46;15.90;99.90
25568;DHT22;13455;51.480;7.594;2023-04-29T18:12:38;15.80;99.90
25568;DHT22;13455;51.480;7.594;2023-04-29T18:17:30;15.70;99.90
25568;DHT22;13455;51.480;7.594;2023-04-29T18:22:22;15.60;99.90
25568;DHT22;13455;51.480;7.594;2023-04-29T18:24:48;15.60;99.90
25568;DHT22;13455;51.480;7.594;2023-04-29T18:27:14;15.60;99.90
25568;DHT22;13455;51.480;7.594;2023-04-29T18:29:39;15.40;99.90
25568;DHT22;13455;51.480;7.594;2023-04-29T18:32:05;16.40;99.90
25568;DHT22;13455;51.480;7.594;2023-04-29T18:34:30;14.60;99.90
25568;DHT22;13455;51.480;7.594;2023-04-29T18:36:56;15.20;99.90
25568;DHT22;13455;51.480;7.594;2023-04-29T18:39:21;15.20;99.90
25568;DHT22;13455;51.480;7.594;2023-04-29T18:41:47;15.10;99.90
25568;DHT22;13455;51.480;7.594;2023-04-29T18:44:13;15.10;99.90
25568;DHT22;13455;51.480;7.594;2023-04-29T18:46:39;15.10;99.90
25568;DHT22;13455;51.480;7.594;2023-04-29T18:51:30;15.00;99.90
25568;DHT22;13455;51.480;7.594;2023-04-29T18:53:56;15.20;99.90
25568;DHT22;13455;51.480;7.594;2023-04-29T18:58:51;14.80;99.90
25568;DHT22;13455;51.480;7.594;2023-04-29T19:01:17;14.90;99.90
25568;DHT22;13455;51.480;7.594;2023-04-29T19:03:42;14.90;99.90
25568;DHT22;13455;51.480;7.594;2023-04-29T19:06:08;14.80;99.90
25568;DHT22;13455;51.480;7.594;2023-04-29T19:08:33;14.80;99.90
25568;DHT22;13455;51.480;7.594;2023-04-29T19:10:59;14.80;99.90
25568;DHT22;13455;51.480;7.594;2023-04-29T19:13:25;14.90;99.90
25568;DHT22;13455;51.480;7.594;2023-04-29T19:15:52;14.70;99.90
25568;DHT22;13455;51.480;7.594;2023-04-29T19:18:19;14.60;99.90
25568;DHT22;13455;51.480;7.594;2023-04-29T19:20:47;14.60;99.90
25568;DHT22;13455;51.480;7.594;2023-04-29T19:23:13;14.70;99.90
25568;DHT22;13455;51.480;7.594;2023-04-29T19:25:38;14.60;99.90
25568;DHT22;13455;51.480;7.594;2023-04-29T19:28:04;14.40;99.90
25568;DHT22;13455;51.480;7.594;2023-04-29T19:30:30;14.40;99.90
25568;DHT22;13455;51.480;7.594;2023-04-29T19:32:56;14.20;99.90
25568;DHT22;13455;51.480;7.594;2023-04-29T19:35:21;14.20;99.90
25568;DHT22;13455;51.480;7.594;2023-04-29T19:37:47;14.10;99.90
25568;DHT22;13455;51.480;7.594;2023-04-29T19:40:13;14.10;99.90
25568;DHT22;13455;51.480;7.594;2023-04-29T19:42:38;14.00;99.90
25568;DHT22;13455;51.480;7.594;2023-04-29T19:45:05;13.90;99.90
25568;DHT22;13455;51.480;7.594;2023-04-29T19:47:32;13.80;99.90
25568;DHT22;13455;51.480;7.594;2023-04-29T19:49:58;13.70;99.90
25568;DHT22;13455;51.480;7.594;2023-04-29T19:52:23;13.80;99.90
25568;DHT22;13455;51.480;7.594;2023-04-29T20:09:27;13.20;99.90
25568;DHT22;13455;51.480;7.594;2023-04-29T20:11:52;13.50;99.90
25568;DHT22;13455;51.480;7.594;2023-04-29T20:14:18;13.10;99.90
25568;DHT22;13455;51.480;7.594;2023-04-29T20:16:43;13.00;99.90
25568;DHT22;13455;51.480;7.594;2023-04-29T20:21:36;13.00;99.90
25568;DHT22;13455;51.480;7.594;2023-04-29T20:28:55;12.70;99.90
25568;DHT22;13455;51.480;7.594;2023-04-29T20:33:47;12.80;99.90
25568;DHT22;13455;51.480;7.594;2023-04-29T20:36:12;12.70;99.90
25568;DHT22;13455;51.480;7.594;2023-04-29T20:38:38;12.80;99.90
25568;DHT22;13455;51.480;7.594;2023-04-29T20:41:04;12.60;99.90
25568;DHT22;13455;51.480;7.594;2023-04-29T20:43:33;12.70;99.90
25568;DHT22;13455;51.480;7.594;2023-04-29T20:45:58;12.50;99.90
25568;DHT22;13455;51.480;7.594;2023-04-29T20:48:25;12.60;99.90
25568;DHT22;13455;51.480;7.594;2023-04-29T20:50:51;12.50;99.90
25568;DHT22;13455;51.480;7.594;2023-04-29T20:53:17;12.30;99.90
25568;DHT22;13455;51.480;7.594;2023-04-29T20:55:42;12.30;99.90
25568;DHT22;13455;51.480;7.594;2023-04-29T20:58:08;12.40;99.90
25568;DHT22;13455;51.480;7.594;2023-04-29T21:00:34;12.40;99.90
25568;DHT22;13455;51.480;7.594;2023-04-29T21:02:59;12.60;99.90
25568;DHT22;13455;51.480;7.594;2023-04-29T21:05:25;12.60;99.90
25568;DHT22;13455;51.480;7.594;2023-04-29T21:07:51;12.60;99.90
25568;DHT22;13455;51.480;7.594;2023-04-29T21:10:17;12.50;99.90
25568;DHT22;13455;51.480;7.594;2023-04-29T21:12:42;12.30;99.90
25568;DHT22;13455;51.480;7.594;2023-04-29T21:15:08;12.50;99.90
25568;DHT22;13455;51.480;7.594;2023-04-29T21:17:34;12.20;99.90
25568;DHT22;13455;51.480;7.594;2023-04-29T21:19:59;12.00;99.90
25568;DHT22;13455;51.480;7.594;2023-04-29T21:22:25;12.00;99.90
25568;DHT22;13455;51.480;7.594;2023-04-29T21:24:51;11.90;99.90